createdAt,value
2016-05-16T00:00:22.303Z,0
2016-05-16T00:01:22.306Z,0
2016-05-16T00:02:22.152Z,0
2016-05-16T00:03:22.342Z,0
2016-05-16T00:04:22.329Z,0
2016-05-16T00:05:22.034Z,0
2016-05-16T00:06:22.351Z,0
2016-05-16T00:07:22.353Z,0
2016-05-16T00:08:22.043Z,0
2016-05-16T00:09:22.358Z,0
2016-05-16T00:10:22.361Z,0
2016-05-16T00:11:22.363Z,0
2016-05-16T00:12:22.382Z,0
2016-05-16T00:13:22.370Z,0
2016-05-16T00:14:22.075Z,0
2016-05-16T00:15:22.391Z,0
2016-05-16T00:16:22.393Z,0
2016-05-16T00:17:22.411Z,0
2016-05-16T00:18:22.413Z,0
2016-05-16T00:19:22.416Z,0
2016-05-16T00:20:22.529Z,0
2016-05-16T00:21:22.422Z,0
2016-05-16T00:22:22.440Z,0
2016-05-16T00:23:22.287Z,0
2016-05-16T00:24:22.446Z,0
2016-05-16T00:25:22.464Z,0
2016-05-16T00:26:22.466Z,0
2016-05-16T00:27:22.485Z,0
2016-05-16T00:28:22.472Z,0
2016-05-16T00:29:22.490Z,0
2016-05-16T00:30:22.493Z,0
2016-05-16T00:31:22.495Z,0
2016-05-16T00:32:22.499Z,0
2016-05-16T00:33:22.189Z,0
2016-05-16T00:34:22.504Z,0
2016-05-16T00:35:22.928Z,0
2016-05-16T00:36:22.525Z,0
2016-05-16T00:37:22.371Z,0
2016-05-16T00:38:22.373Z,0
2016-05-16T00:39:22.548Z,0
2016-05-16T00:40:22.536Z,0
2016-05-16T00:41:22.539Z,0
2016-05-16T00:42:22.588Z,0
2016-05-16T00:43:22.575Z,0
2016-05-16T00:44:22.561Z,0
2016-05-16T00:45:22.471Z,0
2016-05-16T00:46:22.427Z,0
2016-05-16T00:47:22.586Z,0
2016-05-16T00:48:22.588Z,0
2016-05-16T00:49:22.591Z,0
2016-05-16T00:50:22.828Z,0
2016-05-16T00:51:22.612Z,0
2016-05-16T00:52:22.615Z,0
2016-05-16T00:53:22.477Z,0
2016-05-16T00:54:22.621Z,0
2016-05-16T00:55:22.623Z,0
2016-05-16T00:56:22.672Z,0
2016-05-16T00:57:22.644Z,0
2016-05-16T00:58:22.647Z,0
2016-05-16T00:59:22.648Z,0
2016-05-16T01:00:22.511Z,0
2016-05-16T01:01:22.654Z,0
2016-05-16T01:02:22.673Z,0
2016-05-16T01:03:22.363Z,0
2016-05-16T01:04:22.693Z,0
2016-05-16T01:05:22.743Z,0
2016-05-16T01:06:22.542Z,0
2016-05-16T01:07:22.702Z,0
2016-05-16T01:08:22.548Z,0
2016-05-16T01:09:22.395Z,0
2016-05-16T01:10:22.726Z,0
2016-05-16T01:11:22.759Z,0
2016-05-16T01:12:22.778Z,0
2016-05-16T01:13:22.734Z,0
2016-05-16T01:14:22.581Z,0
2016-05-16T01:15:22.598Z,0
2016-05-16T01:16:22.772Z,0
2016-05-16T01:17:22.760Z,0
2016-05-16T01:18:22.763Z,0
2016-05-16T01:19:22.609Z,0
2016-05-16T01:20:23.034Z,0
2016-05-16T01:21:22.786Z,0
2016-05-16T01:22:22.788Z,0
2016-05-16T01:23:22.636Z,0
2016-05-16T01:24:22.795Z,0
2016-05-16T01:25:22.657Z,0
2016-05-16T01:26:22.815Z,0
2016-05-16T01:27:22.819Z,0
2016-05-16T01:28:22.851Z,0
2016-05-16T01:29:22.668Z,0
2016-05-16T01:30:22.685Z,0
2016-05-16T01:31:22.688Z,0
2016-05-16T01:32:22.863Z,0
2016-05-16T01:33:22.851Z,0
2016-05-16T01:34:22.884Z,0
2016-05-16T01:35:23.183Z,0
2016-05-16T01:36:22.873Z,0
2016-05-16T01:37:22.893Z,0
2016-05-16T01:38:22.879Z,0
2016-05-16T01:39:22.881Z,0
2016-05-16T01:40:22.901Z,0
2016-05-16T01:41:22.903Z,0
2016-05-16T01:42:22.920Z,0
2016-05-16T01:43:22.612Z,0
2016-05-16T01:44:22.926Z,0
2016-05-16T01:45:22.772Z,0
2016-05-16T01:46:22.948Z,0
2016-05-16T01:47:22.934Z,0
2016-05-16T01:48:22.796Z,0
2016-05-16T01:49:22.956Z,0
2016-05-16T01:50:22.802Z,0
2016-05-16T01:51:22.835Z,0
2016-05-16T01:52:23.035Z,0
2016-05-16T01:53:22.781Z,0
2016-05-16T01:54:23.120Z,0
2016-05-16T01:55:23.023Z,0
2016-05-16T01:56:23.218Z,0
2016-05-16T01:57:23.220Z,0
2016-05-16T01:58:23.081Z,0
2016-05-16T01:59:23.255Z,0
2016-05-16T02:00:23.131Z,0
2016-05-16T02:01:23.297Z,0
2016-05-16T02:02:23.806Z,0
2016-05-16T02:03:23.330Z,0
2016-05-16T02:04:23.338Z,0
2016-05-16T02:05:23.346Z,0
2016-05-16T02:06:23.351Z,0
2016-05-16T02:07:23.372Z,0
2016-05-16T02:08:23.360Z,0
2016-05-16T02:09:23.381Z,0
2016-05-16T02:10:23.370Z,0
2016-05-16T02:11:23.405Z,0
2016-05-16T02:12:23.393Z,0
2016-05-16T02:13:23.396Z,0
2016-05-16T02:14:23.415Z,0
2016-05-16T02:15:23.418Z,0
2016-05-16T02:16:23.421Z,0
2016-05-16T02:17:23.423Z,0
2016-05-16T02:18:23.427Z,0
2016-05-16T02:19:23.289Z,0
2016-05-16T02:20:24.181Z,0
2016-05-16T02:21:23.295Z,0
2016-05-16T02:22:23.297Z,0
2016-05-16T02:23:23.470Z,0
2016-05-16T02:24:23.459Z,0
2016-05-16T02:25:23.476Z,0
2016-05-16T02:26:23.479Z,0
2016-05-16T02:27:23.481Z,0
2016-05-16T02:28:23.484Z,0
2016-05-16T02:29:23.347Z,0
2016-05-16T02:30:23.506Z,0
2016-05-16T02:31:23.508Z,0
2016-05-16T02:32:23.527Z,0
2016-05-16T02:33:23.372Z,0
2016-05-16T02:34:23.548Z,0
2016-05-16T02:35:23.550Z,0
2016-05-16T02:36:23.538Z,0
2016-05-16T02:37:23.571Z,0
2016-05-16T02:38:23.543Z,0
2016-05-16T02:39:23.389Z,0
2016-05-16T02:40:23.564Z,0
2016-05-16T02:41:23.566Z,0
2016-05-16T02:42:23.568Z,0
2016-05-16T02:43:23.259Z,0
2016-05-16T02:44:23.449Z,0
2016-05-16T02:45:23.437Z,0
2016-05-16T02:46:23.611Z,0
2016-05-16T02:47:23.599Z,0
2016-05-16T02:48:23.617Z,0
2016-05-16T02:49:23.448Z,0
2016-05-16T02:50:24.012Z,0
2016-05-16T02:51:23.625Z,0
2016-05-16T02:52:23.627Z,0
2016-05-16T02:53:23.318Z,0
2016-05-16T02:54:23.648Z,0
2016-05-16T02:55:23.651Z,0
2016-05-16T02:56:23.653Z,0
2016-05-16T02:57:23.656Z,0
2016-05-16T02:58:23.675Z,0
2016-05-16T02:59:23.522Z,0
2016-05-16T03:00:23.524Z,0
2016-05-16T03:01:23.527Z,0
2016-05-16T03:02:23.701Z,0
2016-05-16T03:03:23.688Z,0
2016-05-16T03:04:23.691Z,0
2016-05-16T03:05:23.552Z,0
2016-05-16T03:06:23.743Z,0
2016-05-16T03:07:23.714Z,0
2016-05-16T03:08:23.577Z,0
2016-05-16T03:09:23.579Z,0
2016-05-16T03:10:23.582Z,0
2016-05-16T03:11:23.600Z,0
2016-05-16T03:12:23.744Z,0
2016-05-16T03:13:23.746Z,4
2016-05-16T03:14:23.765Z,4
2016-05-16T03:15:23.782Z,4
2016-05-16T03:16:23.770Z,0
2016-05-16T03:17:23.616Z,0
2016-05-16T03:18:23.791Z,4
2016-05-16T03:19:23.637Z,4
2016-05-16T03:20:23.921Z,4
2016-05-16T03:21:23.799Z,4
2016-05-16T03:22:23.817Z,4
2016-05-16T03:23:23.804Z,4
2016-05-16T03:24:23.714Z,4
2016-05-16T03:25:23.842Z,4
2016-05-16T03:26:23.672Z,4
2016-05-16T03:27:23.518Z,8
2016-05-16T03:28:23.864Z,8
2016-05-16T03:29:23.852Z,4
2016-05-16T03:30:23.855Z,8
2016-05-16T03:31:23.873Z,8
2016-05-16T03:32:23.875Z,8
2016-05-16T03:33:23.878Z,8
2016-05-16T03:34:23.725Z,12
2016-05-16T03:35:24.149Z,12
2016-05-16T03:36:23.886Z,16
2016-05-16T03:37:23.733Z,12
2016-05-16T03:38:23.891Z,16
2016-05-16T03:39:23.754Z,16
2016-05-16T03:40:23.897Z,20
2016-05-16T03:41:23.915Z,20
2016-05-16T03:42:23.918Z,24
2016-05-16T03:43:23.936Z,28
2016-05-16T03:44:23.611Z,32
2016-05-16T03:45:23.941Z,36
2016-05-16T03:46:23.944Z,36
2016-05-16T03:47:23.791Z,40
2016-05-16T03:48:23.965Z,44
2016-05-16T03:49:23.968Z,44
2016-05-16T03:50:23.674Z,48
2016-05-16T03:51:23.989Z,52
2016-05-16T03:52:23.976Z,52
2016-05-16T03:53:23.823Z,56
2016-05-16T03:54:23.997Z,56
2016-05-16T03:55:24.000Z,64
2016-05-16T03:56:23.846Z,64
2016-05-16T03:57:24.021Z,60
2016-05-16T03:58:24.008Z,68
2016-05-16T03:59:23.698Z,72
2016-05-16T04:00:24.028Z,72
2016-05-16T04:01:24.031Z,76
2016-05-16T04:02:24.034Z,84
2016-05-16T04:03:24.037Z,92
2016-05-16T04:04:23.742Z,100
2016-05-16T04:05:23.761Z,104
2016-05-16T04:06:24.061Z,108
2016-05-16T04:07:23.923Z,116
2016-05-16T04:08:24.066Z,124
2016-05-16T04:09:23.928Z,132
2016-05-16T04:10:23.930Z,148
2016-05-16T04:11:23.933Z,168
2016-05-16T04:12:24.093Z,184
2016-05-16T04:13:23.954Z,208
2016-05-16T04:14:24.098Z,232
2016-05-16T04:15:24.116Z,248
2016-05-16T04:16:24.119Z,260
2016-05-16T04:17:24.137Z,276
2016-05-16T04:18:23.968Z,300
2016-05-16T04:19:23.986Z,320
2016-05-16T04:20:24.160Z,348
2016-05-16T04:21:24.148Z,372
2016-05-16T04:22:23.995Z,384
2016-05-16T04:23:24.153Z,392
2016-05-16T04:24:24.203Z,388
2016-05-16T04:25:24.018Z,396
2016-05-16T04:26:24.176Z,408
2016-05-16T04:27:24.023Z,424
2016-05-16T04:28:24.198Z,440
2016-05-16T04:29:24.201Z,452
2016-05-16T04:30:24.047Z,468
2016-05-16T04:31:24.206Z,484
2016-05-16T04:32:24.208Z,500
2016-05-16T04:33:24.211Z,508
2016-05-16T04:34:24.073Z,516
2016-05-16T04:35:24.217Z,528
2016-05-16T04:36:24.235Z,544
2016-05-16T04:37:24.238Z,572
2016-05-16T04:38:24.256Z,592
2016-05-16T04:39:24.103Z,608
2016-05-16T04:40:24.261Z,592
2016-05-16T04:41:24.280Z,588
2016-05-16T04:42:24.111Z,580
2016-05-16T04:43:24.332Z,544
2016-05-16T04:44:24.288Z,492
2016-05-16T04:45:24.134Z,456
2016-05-16T04:46:24.137Z,468
2016-05-16T04:47:24.312Z,516
2016-05-16T04:48:24.299Z,508
2016-05-16T04:49:24.160Z,492
2016-05-16T04:50:24.648Z,480
2016-05-16T04:51:24.353Z,476
2016-05-16T04:52:24.169Z,476
2016-05-16T04:53:24.328Z,472
2016-05-16T04:54:24.190Z,464
2016-05-16T04:55:24.348Z,444
2016-05-16T04:56:24.195Z,448
2016-05-16T04:57:24.214Z,456
2016-05-16T04:58:24.372Z,464
2016-05-16T04:59:24.219Z,432
2016-05-16T05:00:24.222Z,388
2016-05-16T05:01:24.396Z,392
2016-05-16T05:02:24.398Z,404
2016-05-16T05:03:24.245Z,412
2016-05-16T05:04:24.247Z,408
2016-05-16T05:05:24.250Z,428
2016-05-16T05:06:24.097Z,464
2016-05-16T05:07:24.428Z,460
2016-05-16T05:08:24.414Z,452
2016-05-16T05:09:24.277Z,464
2016-05-16T05:10:24.436Z,476
2016-05-16T05:11:24.438Z,448
2016-05-16T05:12:24.472Z,412
2016-05-16T05:13:24.460Z,380
2016-05-16T05:14:24.306Z,384
2016-05-16T05:15:24.481Z,376
2016-05-16T05:16:24.311Z,388
2016-05-16T05:17:24.485Z,400
2016-05-16T05:18:24.332Z,456
2016-05-16T05:19:24.476Z,492
2016-05-16T05:20:24.604Z,452
2016-05-16T05:21:24.512Z,460
2016-05-16T05:22:24.499Z,476
2016-05-16T05:23:24.345Z,492
2016-05-16T05:24:24.521Z,492
2016-05-16T05:25:24.523Z,500
2016-05-16T05:26:24.213Z,500
2016-05-16T05:27:24.544Z,472
2016-05-16T05:28:24.547Z,460
2016-05-16T05:29:24.550Z,464
2016-05-16T05:30:24.552Z,440
2016-05-16T05:31:24.258Z,416
2016-05-16T05:32:38.651Z,412
2016-05-16T05:33:24.420Z,412
2016-05-16T05:34:24.423Z,424
2016-05-16T05:35:24.441Z,432
2016-05-16T05:36:24.583Z,424
2016-05-16T05:37:24.603Z,404
2016-05-16T05:38:24.605Z,404
2016-05-16T05:39:24.608Z,416
2016-05-16T05:40:24.610Z,424
2016-05-16T05:41:24.597Z,424
2016-05-16T05:42:24.630Z,424
2016-05-16T05:43:24.619Z,428
2016-05-16T05:44:24.636Z,440
2016-05-16T05:45:24.671Z,456
2016-05-16T05:46:24.641Z,456
2016-05-16T05:47:24.489Z,456
2016-05-16T05:48:24.662Z,464
2016-05-16T05:49:24.510Z,472
2016-05-16T05:50:26.231Z,476
2016-05-16T05:51:24.687Z,484
2016-05-16T05:52:24.517Z,500
2016-05-16T05:53:24.693Z,504
2016-05-16T05:54:24.695Z,508
2016-05-16T05:55:24.698Z,500
2016-05-16T05:56:24.701Z,500
2016-05-16T05:57:24.546Z,520
2016-05-16T05:58:24.721Z,564
2016-05-16T05:59:24.567Z,596
2016-05-16T06:00:24.726Z,584
2016-05-16T06:01:24.573Z,588
2016-05-16T06:02:24.748Z,616
2016-05-16T06:03:24.578Z,624
2016-05-16T06:04:24.753Z,632
2016-05-16T06:05:25.115Z,648
2016-05-16T06:06:24.774Z,708
2016-05-16T06:07:24.761Z,760
2016-05-16T06:08:24.764Z,824
2016-05-16T06:09:24.782Z,904
2016-05-16T06:10:24.800Z,960
2016-05-16T06:11:24.787Z,1000
2016-05-16T06:12:24.791Z,1020
2016-05-16T06:13:24.793Z,1068
2016-05-16T06:14:24.655Z,1072
2016-05-16T06:15:24.844Z,1068
2016-05-16T06:16:24.660Z,1064
2016-05-16T06:17:24.834Z,1028
2016-05-16T06:18:24.509Z,1036
2016-05-16T06:19:24.841Z,1148
2016-05-16T06:20:24.843Z,1308
2016-05-16T06:21:24.846Z,1320
2016-05-16T06:22:24.707Z,1284
2016-05-16T06:23:24.710Z,1240
2016-05-16T06:24:24.869Z,1168
2016-05-16T06:25:24.871Z,1280
2016-05-16T06:26:24.890Z,1268
2016-05-16T06:27:24.893Z,1220
2016-05-16T06:28:24.739Z,1156
2016-05-16T06:29:24.898Z,1088
2016-05-16T06:30:24.932Z,1028
2016-05-16T06:31:24.762Z,988
2016-05-16T06:32:24.923Z,988
2016-05-16T06:33:24.611Z,1024
2016-05-16T06:34:24.771Z,1048
2016-05-16T06:35:25.290Z,1060
2016-05-16T06:36:24.948Z,1068
2016-05-16T06:37:24.639Z,1112
2016-05-16T06:38:24.953Z,1176
2016-05-16T06:39:24.956Z,1236
2016-05-16T06:40:24.959Z,1232
2016-05-16T06:41:24.978Z,1188
2016-05-16T06:42:24.980Z,1212
2016-05-16T06:43:24.983Z,1148
2016-05-16T06:44:24.844Z,1084
2016-05-16T06:45:24.988Z,1064
2016-05-16T06:46:25.007Z,1172
2016-05-16T06:47:24.994Z,1332
2016-05-16T06:48:25.013Z,1508
2016-05-16T06:49:24.858Z,2240
2016-05-16T06:50:25.611Z,1448
2016-05-16T06:51:25.021Z,1772
2016-05-16T06:52:25.038Z,1188
2016-05-16T06:53:25.041Z,1192
2016-05-16T06:54:25.043Z,1272
2016-05-16T06:55:25.046Z,1272
2016-05-16T06:56:25.065Z,1336
2016-05-16T06:57:25.068Z,1404
2016-05-16T06:58:25.070Z,1416
2016-05-16T06:59:25.729Z,1444
2016-05-16T07:00:25.090Z,1516
2016-05-16T07:01:25.093Z,1680
2016-05-16T07:02:26.878Z,2044
2016-05-16T07:03:25.098Z,3044
2016-05-16T07:04:25.102Z,8596
2016-05-16T07:05:24.948Z,3388
2016-05-16T07:06:24.966Z,2696
2016-05-16T07:07:25.110Z,1896
2016-05-16T07:08:25.144Z,1760
2016-05-16T07:09:25.131Z,1712
2016-05-16T07:10:25.149Z,1780
2016-05-16T07:11:25.152Z,1704
2016-05-16T07:12:24.998Z,1724
2016-05-16T07:13:25.173Z,1948
2016-05-16T07:14:25.160Z,1912
2016-05-16T07:15:25.022Z,1948
2016-05-16T07:16:25.181Z,2260
2016-05-16T07:17:25.183Z,3924
2016-05-16T07:18:25.186Z,2144
2016-05-16T07:19:25.188Z,2136
2016-05-16T07:20:24.941Z,2808
2016-05-16T07:21:25.210Z,4476
2016-05-16T07:22:25.057Z,3324
2016-05-16T07:23:25.232Z,16352
2016-05-16T07:24:25.093Z,6384
2016-05-16T07:25:25.237Z,4940
2016-05-16T07:26:25.239Z,7548
2016-05-16T07:27:25.242Z,39552
2016-05-16T07:28:25.260Z,40256
2016-05-16T07:29:24.950Z,26112
2016-05-16T07:30:25.266Z,24672
2016-05-16T07:31:25.284Z,8332
2016-05-16T07:32:25.286Z,3044
2016-05-16T07:33:25.304Z,2984
2016-05-16T07:34:25.307Z,4232
2016-05-16T07:35:25.420Z,5000
2016-05-16T07:36:25.156Z,4980
2016-05-16T07:37:25.159Z,4524
2016-05-16T07:38:25.334Z,4488
2016-05-16T07:39:25.353Z,3872
2016-05-16T07:40:25.340Z,3436
2016-05-16T07:41:25.200Z,3196
2016-05-16T07:42:25.361Z,2728
2016-05-16T07:43:25.050Z,2976
2016-05-16T07:44:25.381Z,3028
2016-05-16T07:45:25.368Z,3360
2016-05-16T07:46:25.386Z,2924
2016-05-16T07:47:25.263Z,2448
2016-05-16T07:48:25.391Z,1904
2016-05-16T07:49:25.255Z,1752
2016-05-16T07:50:25.429Z,1524
2016-05-16T07:51:25.416Z,1132
2016-05-16T07:52:25.418Z,832
2016-05-16T07:53:25.312Z,784
2016-05-16T07:54:25.283Z,856
2016-05-16T07:55:25.457Z,828
2016-05-16T07:56:25.320Z,812
2016-05-16T07:57:25.462Z,1140
2016-05-16T07:58:25.466Z,1576
2016-05-16T07:59:25.485Z,1756
2016-05-16T08:00:25.331Z,1976
2016-05-16T08:01:25.490Z,2232
2016-05-16T08:02:25.492Z,2460
2016-05-16T08:03:25.495Z,2684
2016-05-16T08:04:25.497Z,2724
2016-05-16T08:05:25.922Z,2820
2016-05-16T08:06:25.518Z,3116
2016-05-16T08:07:25.521Z,3404
2016-05-16T08:08:25.539Z,2964
2016-05-16T08:09:25.558Z,2604
2016-05-16T08:10:25.389Z,2320
2016-05-16T08:11:25.563Z,2008
2016-05-16T08:12:25.394Z,1748
2016-05-16T08:13:25.411Z,1548
2016-05-16T08:14:25.572Z,1456
2016-05-16T08:15:25.418Z,1608
2016-05-16T08:16:25.592Z,1388
2016-05-16T08:17:25.595Z,996
2016-05-16T08:18:25.597Z,844
2016-05-16T08:19:35.944Z,800
2016-05-16T08:20:25.838Z,796
2016-05-16T08:21:25.715Z,892
2016-05-16T08:22:25.640Z,984
2016-05-16T08:23:25.643Z,1052
2016-05-16T08:24:25.489Z,1124
2016-05-16T08:25:25.679Z,1256
2016-05-16T08:26:25.354Z,1544
2016-05-16T08:27:25.496Z,1876
2016-05-16T08:28:25.671Z,2324
2016-05-16T08:29:25.658Z,2632
2016-05-16T08:30:25.520Z,2760
2016-05-16T08:31:25.680Z,2760
2016-05-16T08:32:25.542Z,2752
2016-05-16T08:33:25.701Z,2920
2016-05-16T08:34:25.703Z,2904
2016-05-16T08:35:25.956Z,2604
2016-05-16T08:36:25.724Z,2156
2016-05-16T08:37:25.726Z,1884
2016-05-16T08:38:25.729Z,1644
2016-05-16T08:39:25.748Z,1480
2016-05-16T08:40:25.750Z,1536
2016-05-16T08:41:25.784Z,1480
2016-05-16T08:42:25.615Z,1456
2016-05-16T08:43:25.789Z,1548
2016-05-16T08:44:25.621Z,1952
2016-05-16T08:45:25.779Z,1896
2016-05-16T08:46:25.782Z,1740
2016-05-16T08:47:25.645Z,1660
2016-05-16T08:48:25.647Z,1672
2016-05-16T08:49:25.822Z,1564
2016-05-16T08:50:26.215Z,1428
2016-05-16T08:51:25.999Z,1240
2016-05-16T08:52:25.674Z,1084
2016-05-16T08:53:25.832Z,1004
2016-05-16T08:54:25.835Z,928
2016-05-16T08:55:25.854Z,832
2016-05-16T08:56:25.857Z,776
2016-05-16T08:57:25.734Z,796
2016-05-16T08:58:25.877Z,812
2016-05-16T08:59:25.879Z,728
2016-05-16T09:00:25.882Z,656
2016-05-16T09:01:25.900Z,608
2016-05-16T09:02:25.731Z,588
2016-05-16T09:03:25.907Z,560
2016-05-16T09:04:25.768Z,556
2016-05-16T09:05:26.584Z,572
2016-05-16T09:06:25.929Z,592
2016-05-16T09:07:25.932Z,636
2016-05-16T09:08:25.795Z,688
2016-05-16T09:09:25.937Z,764
2016-05-16T09:10:25.628Z,812
2016-05-16T09:11:25.959Z,872
2016-05-16T09:12:25.962Z,1000
2016-05-16T09:13:25.980Z,1152
2016-05-16T09:14:25.826Z,1308
2016-05-16T09:15:25.672Z,1512
2016-05-16T09:16:25.988Z,2620
2016-05-16T09:17:25.990Z,2736
2016-05-16T09:18:26.008Z,2788
2016-05-16T09:19:26.012Z,2772
2016-05-16T09:20:26.155Z,2764
2016-05-16T09:21:26.392Z,2716
2016-05-16T09:22:25.879Z,2688
2016-05-16T09:23:26.038Z,2648
2016-05-16T09:24:25.900Z,2604
2016-05-16T09:25:25.888Z,2656
2016-05-16T09:26:26.062Z,2752
2016-05-16T09:27:26.065Z,2840
2016-05-16T09:28:26.068Z,3024
2016-05-16T09:29:26.085Z,3172
2016-05-16T09:30:26.088Z,3200
2016-05-16T09:31:25.950Z,2676
2016-05-16T09:32:26.093Z,2020
2016-05-16T09:33:26.112Z,1868
2016-05-16T09:34:25.959Z,1564
2016-05-16T09:35:26.133Z,1436
2016-05-16T09:36:26.120Z,1268
2016-05-16T09:37:26.138Z,1000
2016-05-16T09:38:26.156Z,820
2016-05-16T09:39:26.003Z,688
2016-05-16T09:40:26.162Z,600
2016-05-16T09:41:26.039Z,560
2016-05-16T09:42:26.167Z,536
2016-05-16T09:43:26.170Z,520
2016-05-16T09:44:26.173Z,524
2016-05-16T09:45:26.034Z,532
2016-05-16T09:46:26.225Z,584
2016-05-16T09:47:26.196Z,632
2016-05-16T09:48:25.886Z,660
2016-05-16T09:49:26.092Z,688
2016-05-16T09:50:26.438Z,1576
2016-05-16T09:51:26.083Z,1736
2016-05-16T09:52:26.241Z,1268
2016-05-16T09:53:26.088Z,1992
2016-05-16T09:54:26.262Z,2156
2016-05-16T09:55:26.280Z,2256
2016-05-16T09:56:26.268Z,2428
2016-05-16T09:57:26.271Z,2504
2016-05-16T09:58:26.274Z,2512
2016-05-16T09:59:26.307Z,2480
2016-05-16T10:00:26.294Z,2456
2016-05-16T10:01:26.156Z,2492
2016-05-16T10:02:26.315Z,2592
2016-05-16T10:03:26.317Z,2636
2016-05-16T10:04:26.335Z,1968
2016-05-16T10:05:26.213Z,1808
2016-05-16T10:06:26.451Z,1896
2016-05-16T10:07:26.344Z,2796
2016-05-16T10:08:26.346Z,2276
2016-05-16T10:09:26.365Z,2448
2016-05-16T10:10:26.383Z,2136
2016-05-16T10:11:26.370Z,2748
2016-05-16T10:12:26.373Z,1808
2016-05-16T10:13:26.079Z,2476
2016-05-16T10:14:26.410Z,1896
2016-05-16T10:15:26.412Z,1860
2016-05-16T10:16:26.415Z,1360
2016-05-16T10:17:26.261Z,1320
2016-05-16T10:18:28.639Z,1292
2016-05-16T10:19:26.422Z,1408
2016-05-16T10:20:26.458Z,2104
2016-05-16T10:21:26.444Z,1312
2016-05-16T10:22:26.447Z,2088
2016-05-16T10:23:26.466Z,1284
2016-05-16T10:24:26.452Z,1632
2016-05-16T10:25:26.314Z,2048
2016-05-16T10:26:26.316Z,1908
2016-05-16T10:27:26.491Z,2032
2016-05-16T10:28:26.541Z,1500
2016-05-16T10:29:26.497Z,2056
2016-05-16T10:30:26.516Z,2040
2016-05-16T10:31:26.377Z,2052
2016-05-16T10:32:26.521Z,2076
2016-05-16T10:33:26.523Z,1572
2016-05-16T10:34:26.635Z,2172
2016-05-16T10:35:26.543Z,2220
2016-05-16T10:36:26.391Z,1468
2016-05-16T10:37:26.549Z,1532
2016-05-16T10:38:26.567Z,2064
2016-05-16T10:39:26.430Z,2568
2016-05-16T10:40:26.605Z,1812
2016-05-16T10:41:26.420Z,1812
2016-05-16T10:42:26.610Z,1744
2016-05-16T10:43:40.690Z,1952
2016-05-16T10:44:26.443Z,1748
2016-05-16T10:45:26.461Z,1664
2016-05-16T10:46:26.620Z,1692
2016-05-16T10:47:26.623Z,1720
2016-05-16T10:48:26.642Z,1696
2016-05-16T10:49:26.644Z,1612
2016-05-16T10:50:26.663Z,1516
2016-05-16T10:51:26.649Z,1464
2016-05-16T10:52:26.669Z,1440
2016-05-16T10:53:26.514Z,1512
2016-05-16T10:54:26.377Z,2304
2016-05-16T10:55:26.380Z,1484
2016-05-16T10:56:26.694Z,1432
2016-05-16T10:57:26.581Z,1388
2016-05-16T10:58:26.787Z,1340
2016-05-16T10:59:26.836Z,1328
2016-05-16T11:00:26.746Z,1364
2016-05-16T11:01:26.951Z,1492
2016-05-16T11:02:26.990Z,1584
2016-05-16T11:03:26.854Z,1612
2016-05-16T11:04:27.029Z,1660
2016-05-16T11:05:29.096Z,1644
2016-05-16T11:06:28.241Z,1568
2016-05-16T11:07:27.078Z,1548
2016-05-16T11:08:27.103Z,1532
2016-05-16T11:09:26.955Z,1464
2016-05-16T11:10:27.136Z,1892
2016-05-16T11:11:27.145Z,2128
2016-05-16T11:12:27.150Z,2120
2016-05-16T11:13:27.154Z,2148
2016-05-16T11:14:27.191Z,1556
2016-05-16T11:15:27.023Z,1960
2016-05-16T11:16:27.029Z,2168
2016-05-16T11:17:27.204Z,1896
2016-05-16T11:18:26.738Z,1456
2016-05-16T11:19:27.212Z,1540
2016-05-16T11:20:27.230Z,1548
2016-05-16T11:21:27.234Z,1492
2016-05-16T11:22:27.222Z,1472
2016-05-16T11:23:27.255Z,1488
2016-05-16T11:24:27.259Z,1512
2016-05-16T11:25:27.105Z,1640
2016-05-16T11:26:27.264Z,2120
2016-05-16T11:27:27.283Z,2048
2016-05-16T11:28:26.973Z,1816
2016-05-16T11:29:27.272Z,1780
2016-05-16T11:30:27.136Z,1736
2016-05-16T11:31:27.294Z,1696
2016-05-16T11:32:27.297Z,1660
2016-05-16T11:33:27.315Z,1656
2016-05-16T11:34:27.333Z,1704
2016-05-16T11:35:27.242Z,1640
2016-05-16T11:36:27.385Z,1668
2016-05-16T11:37:27.341Z,1728
2016-05-16T11:38:27.360Z,1732
2016-05-16T11:39:27.363Z,1716
2016-05-16T11:40:27.365Z,1676
2016-05-16T11:41:27.368Z,1684
2016-05-16T11:42:27.385Z,1676
2016-05-16T11:43:27.388Z,1672
2016-05-16T11:44:27.391Z,1672
2016-05-16T11:45:27.409Z,1652
2016-05-16T11:46:27.413Z,1664
2016-05-16T11:47:27.415Z,1700
2016-05-16T11:48:27.418Z,1712
2016-05-16T11:49:27.437Z,1608
2016-05-16T11:50:27.439Z,1496
2016-05-16T11:51:27.707Z,1428
2016-05-16T11:52:27.444Z,1372
2016-05-16T11:53:27.290Z,1352
2016-05-16T11:54:27.293Z,1352
2016-05-16T11:55:27.312Z,1352
2016-05-16T11:56:27.330Z,1448
2016-05-16T11:57:27.489Z,1604
2016-05-16T11:58:27.491Z,1644
2016-05-16T11:59:27.495Z,1624
2016-05-16T12:00:27.372Z,1568
2016-05-16T12:01:27.515Z,1520
2016-05-16T12:02:27.503Z,1512
2016-05-16T12:03:27.536Z,1540
2016-05-16T12:04:27.523Z,1500
2016-05-16T12:05:27.666Z,1444
2016-05-16T12:06:27.591Z,1420
2016-05-16T12:07:27.547Z,1428
2016-05-16T12:08:27.566Z,1436
2016-05-16T12:09:27.568Z,1396
2016-05-16T12:10:27.586Z,1412
2016-05-16T12:11:27.417Z,1448
2016-05-16T12:12:27.591Z,1876
2016-05-16T12:13:27.594Z,2068
2016-05-16T12:14:27.441Z,1840
2016-05-16T12:15:27.444Z,1792
2016-05-16T12:16:27.634Z,1712
2016-05-16T12:17:27.637Z,1912
2016-05-16T12:18:27.623Z,1720
2016-05-16T12:19:27.485Z,1788
2016-05-16T12:20:27.659Z,1476
2016-05-16T12:21:27.678Z,1364
2016-05-16T12:22:27.651Z,1296
2016-05-16T12:23:27.668Z,1236
2016-05-16T12:24:27.671Z,1200
2016-05-16T12:25:27.673Z,1232
2016-05-16T12:26:27.520Z,1364
2016-05-16T12:27:27.585Z,1284
2016-05-16T12:28:27.744Z,1480
2016-05-16T12:29:27.559Z,1388
2016-05-16T12:30:27.703Z,1364
2016-05-16T12:31:27.737Z,1380
2016-05-16T12:32:27.411Z,1364
2016-05-16T12:33:27.726Z,1300
2016-05-16T12:34:27.744Z,1292
2016-05-16T12:35:27.685Z,1188
2016-05-16T12:36:28.015Z,1120
2016-05-16T12:37:27.597Z,1124
2016-05-16T12:38:27.772Z,1100
2016-05-16T12:39:27.789Z,1092
2016-05-16T12:40:27.777Z,1144
2016-05-16T12:41:27.779Z,1244
2016-05-16T12:42:27.797Z,1316
2016-05-16T12:43:27.799Z,1444
2016-05-16T12:44:27.818Z,1496
2016-05-16T12:45:27.821Z,1784
2016-05-16T12:46:27.668Z,1748
2016-05-16T12:47:27.826Z,1696
2016-05-16T12:48:27.829Z,1712
2016-05-16T12:49:27.832Z,1840
2016-05-16T12:50:27.865Z,1620
2016-05-16T12:51:28.025Z,1564
2016-05-16T12:52:27.870Z,1532
2016-05-16T12:53:27.890Z,1492
2016-05-16T12:54:27.877Z,1516
2016-05-16T12:55:27.895Z,1548
2016-05-16T12:56:27.897Z,1556
2016-05-16T12:57:27.900Z,1660
2016-05-16T12:58:27.918Z,1648
2016-05-16T12:59:27.750Z,1620
2016-05-16T13:00:27.924Z,1580
2016-05-16T13:01:27.926Z,1592
2016-05-16T13:02:27.773Z,1568
2016-05-16T13:03:27.931Z,1500
2016-05-16T13:04:27.950Z,1444
2016-05-16T13:05:28.266Z,1272
2016-05-16T13:06:28.081Z,1148
2016-05-16T13:07:27.958Z,1088
2016-05-16T13:08:27.977Z,1072
2016-05-16T13:09:27.823Z,1012
2016-05-16T13:10:27.841Z,952
2016-05-16T13:11:27.844Z,904
2016-05-16T13:12:28.018Z,872
2016-05-16T13:13:28.005Z,824
2016-05-16T13:14:28.024Z,764
2016-05-16T13:15:28.027Z,748
2016-05-16T13:16:28.046Z,736
2016-05-16T13:17:28.048Z,728
2016-05-16T13:18:28.035Z,712
2016-05-16T13:19:28.068Z,708
2016-05-16T13:20:28.071Z,708
2016-05-16T13:21:28.074Z,732
2016-05-16T13:22:28.077Z,768
2016-05-16T13:23:28.110Z,824
2016-05-16T13:24:27.942Z,904
2016-05-16T13:25:28.101Z,984
2016-05-16T13:26:27.947Z,1032
2016-05-16T13:27:28.106Z,1104
2016-05-16T13:28:27.967Z,1208
2016-05-16T13:29:28.127Z,1284
2016-05-16T13:30:28.161Z,1372
2016-05-16T13:31:28.132Z,1452
2016-05-16T13:32:27.822Z,1516
2016-05-16T13:33:27.997Z,1540
2016-05-16T13:34:28.000Z,1596
2016-05-16T13:35:28.486Z,1624
2016-05-16T13:36:27.880Z,1636
2016-05-16T13:37:28.180Z,1688
2016-05-16T13:38:28.214Z,1648
2016-05-16T13:39:28.185Z,1660
2016-05-16T13:40:28.188Z,1676
2016-05-16T13:41:28.050Z,1612
2016-05-16T13:42:28.225Z,1636
2016-05-16T13:43:28.211Z,1556
2016-05-16T13:44:28.230Z,1584
2016-05-16T13:45:28.233Z,1676
2016-05-16T13:46:28.079Z,1784
2016-05-16T13:47:28.096Z,1756